Date,TemperatureHighF,TemperatureAvgF,TemperatureLowF,DewpointHighF,DewpointAvgF,DewpointLowF,HumidityHigh,HumidityAvg,HumidityLow,PressureMaxIn,PressureMinIn,WindSpeedMaxMPH,WindSpeedAvgMPH,GustSpeedMaxMPH,PrecipitationSumIn
2013-1-1,67.5,49.0,36.7,32.1,24.4,14.2,62,41,14,30.15,30.03,3,1,8,0.00
2013-1-2,70.5,52.8,40.3,23.8,14.5,4.5,44,24,10,30.08,29.90,5,2,12,0.00
2013-1-3,73.8,53.8,38.3,20.2,12.7,-0.6,47,22,10,30.08,29.94,8,2,18,0.00
2013-1-4,70.2,48.3,34.2,26.4,12.8,2.7,45,27,10,30.18,30.06,3,1,6,0.00
2013-1-5,70.3,47.4,32.2,23.8,14.6,4.6,48,31,10,30.21,30.04,2,1,8,0.00
2013-1-6,70.2,51.9,34.9,24.2,16.1,7.4,53,26,16,30.03,29.83,9,2,21,0.00
2013-1-7,71.2,57.8,46.6,23.5,12.6,2.8,35,17,10,29.91,29.81,12,3,23,0.00
2013-1-8,84.7,66.4,51.8,35.8,23.6,10.2,37,21,10,29.95,29.81,11,3,19,0.00
2013-1-9,79.2,59.2,45.3,40.8,33.0,27.2,61,40,17,30.02,29.76,3,1,8,0.05
2013-1-10,67.6,55.4,45.5,43.1,29.0,16.0,48,37,23,29.87,29.67,11,3,21,0.00
2013-1-11,64.9,50.8,42.6,25.6,15.8,2.5,50,27,10,29.99,29.86,9,3,19,0.05
2013-1-12,63.7,48.1,35.4,31.1,19.1,2.3,64,36,10,30.03,29.89,8,1,17,0.00
2013-1-13,62.2,44.3,29.5,21.7,12.0,2.0,51,31,10,30.06,29.91,3,1,7,0.00
2013-1-18,83.8,62.5,50.0,30.6,20.2,12.2,35,22,10,30.02,29.95,4,1,7,0.00
2013-1-19,85.1,59.4,46.4,35.9,19.5,-10.6,50,23,10,30.22,29.97,4,2,9,0.00
2013-1-20,86.9,60.3,40.5,38.7,16.0,-11.3,43,20,10,30.03,29.88,80,7,80,0.00
2013-1-21,88.0,64.9,47.1,24.7,12.3,-0.5,21,13,10,29.99,29.88,4,2,9,0.00
2013-1-22,98.1,65.0,0.0,32.3,16.7,11.4,33,16,10,30.11,29.89,2,0,4,0.00
2013-1-23,78.3,62.4,48.0,37.9,25.6,16.2,43,27,10,30.12,29.88,24,1,24,0.00
2013-1-24,77.0,64.3,59.5,49.0,41.9,30.1,67,45,30,30.18,29.90,10,1,28,0.00
2013-1-25,105.1,66.7,58.3,99.9,61.4,48.9,96,84,67,30.17,29.83,4,1,7,0.00
2013-1-26,105.1,86.1,61.3,99.9,80.3,56.2,96,88,64,29.96,29.71,4,0,8,0.00
2013-1-27,73.6,60.8,51.1,58.7,50.1,35.4,95,71,37,29.83,29.71,10,2,18,0.00
2013-1-28,68.2,55.3,47.5,39.4,29.7,19.9,67,40,18,29.98,29.81,11,3,22,0.00
2013-1-29,72.5,54.5,41.7,39.7,31.2,22.3,71,45,15,30.09,29.91,4,1,11,0.00
2013-1-30,76.1,54.8,39.9,45.6,37.1,27.9,88,57,18,30.21,30.07,2,1,9,0.00
2013-1-31,81.5,58.2,43.5,46.2,38.9,-2.7,78,54,18,30.11,29.95,2,1,5,0.00